createdAt,value
2019-01-16T00:00:31.259Z,14.63
2019-01-16T00:03:31.559Z,15.00
2019-01-16T00:06:18.402Z,16.10
2019-01-16T00:09:21.631Z,14.57
2019-01-16T00:12:00.459Z,15.33
2019-01-16T00:14:52.436Z,13.10
2019-01-16T00:17:40.488Z,14.87
2019-01-16T00:20:28.660Z,14.83
2019-01-16T00:23:15.269Z,14.13
2019-01-16T00:25:55.878Z,14.97
2019-01-16T00:28:56.352Z,15.57
2019-01-16T00:32:22.134Z,14.40
2019-01-16T00:35:04.118Z,16.93
2019-01-16T00:37:54.668Z,16.07
2019-01-16T00:40:48.651Z,17.07
2019-01-16T00:43:27.560Z,19.20
2019-01-16T00:46:15.531Z,21.30
2019-01-16T00:49:02.279Z,16.37
2019-01-16T00:51:57.053Z,16.43
2019-01-16T00:54:35.219Z,16.73
2019-01-16T00:57:22.051Z,18.13
2019-01-16T01:00:08.025Z,18.83
2019-01-16T01:02:59.595Z,19.40
2019-01-16T01:05:48.709Z,18.27
2019-01-16T01:08:29.421Z,19.67
2019-01-16T01:11:13.107Z,17.53
2019-01-16T01:14:01.157Z,18.93
2019-01-16T01:16:48.129Z,20.90
2019-01-16T01:19:35.009Z,17.87
2019-01-16T01:22:29.289Z,17.60
2019-01-16T01:25:22.470Z,19.97
2019-01-16T01:28:18.934Z,18.57
2019-01-16T01:31:13.018Z,16.03
2019-01-16T01:34:03.852Z,14.97
2019-01-16T01:36:44.578Z,16.63
2019-01-16T01:39:31.184Z,16.87
2019-01-16T01:42:38.758Z,18.30
2019-01-16T01:45:26.404Z,15.03
2019-01-16T01:48:13.412Z,17.60
2019-01-16T01:51:01.570Z,16.43
2019-01-16T01:53:49.660Z,18.03
2019-01-16T01:56:36.708Z,15.17
2019-01-16T01:59:30.740Z,16.93
2019-01-16T02:02:18.808Z,17.73
2019-01-16T02:05:05.840Z,20.13
2019-01-16T02:08:12.741Z,18.00
2019-01-16T02:10:51.868Z,16.27
2019-01-16T02:13:29.378Z,18.33
2019-01-16T02:16:06.851Z,18.40
2019-01-16T02:19:06.867Z,20.63
2019-01-16T02:21:53.883Z,18.77
2019-01-16T02:24:41.331Z,17.20
2019-01-16T02:27:29.386Z,20.10
2019-01-16T02:30:20.011Z,20.37
2019-01-16T02:33:06.948Z,17.53
2019-01-16T02:35:53.837Z,20.27
2019-01-16T02:38:43.863Z,21.93
2019-01-16T02:41:31.863Z,20.77
2019-01-16T02:44:18.735Z,24.27
2019-01-16T02:47:07.200Z,22.20
2019-01-16T02:49:58.588Z,23.70
2019-01-16T02:52:45.490Z,20.90
2019-01-16T02:55:45.844Z,20.60
2019-01-16T02:58:33.977Z,21.67
2019-01-16T03:01:22.088Z,24.53
2019-01-16T03:04:09.152Z,22.67
2019-01-16T03:06:49.375Z,21.33
2019-01-16T03:09:33.162Z,22.90
2019-01-16T03:12:14.714Z,22.13
2019-01-16T03:14:56.574Z,24.27
2019-01-16T03:17:43.631Z,26.67
2019-01-16T03:20:42.230Z,25.47
2019-01-16T03:23:22.107Z,27.93
2019-01-16T03:26:12.890Z,27.30
2019-01-16T03:29:09.793Z,31.23
2019-01-16T03:31:57.890Z,32.27
2019-01-16T03:35:04.266Z,30.00
2019-01-16T03:37:53.525Z,32.63
2019-01-16T03:40:40.302Z,34.07
2019-01-16T03:43:15.793Z,39.63
2019-01-16T03:46:03.906Z,37.63
2019-01-16T03:48:55.036Z,34.67
2019-01-16T03:51:41.795Z,31.93
2019-01-16T03:54:28.851Z,34.07
2019-01-16T03:57:12.759Z,33.50
2019-01-16T04:00:06.647Z,34.23
2019-01-16T04:03:13.218Z,31.33
2019-01-16T04:06:13.179Z,31.73
2019-01-16T04:09:03.409Z,31.03
2019-01-16T04:11:54.515Z,30.67
2019-01-16T04:14:45.386Z,36.90
2019-01-16T04:17:32.391Z,32.37
2019-01-16T04:20:08.627Z,36.43
2019-01-16T04:22:56.803Z,32.97
2019-01-16T04:25:48.210Z,34.93
2019-01-16T04:28:37.022Z,32.73
2019-01-16T04:31:34.056Z,30.80
2019-01-16T04:34:17.070Z,35.23
2019-01-16T04:37:03.874Z,30.87
2019-01-16T04:40:07.344Z,31.97
2019-01-16T04:42:43.338Z,26.27
2019-01-16T04:45:28.928Z,32.27
2019-01-16T04:48:17.008Z,27.97
2019-01-16T04:51:07.863Z,27.67
2019-01-16T04:53:54.564Z,25.63
2019-01-16T04:56:57.677Z,28.97
2019-01-16T04:59:51.726Z,29.90
2019-01-16T05:02:51.868Z,22.50
2019-01-16T05:05:38.442Z,23.90
2019-01-16T05:08:31.398Z,22.77
2019-01-16T05:11:21.380Z,22.77
2019-01-16T05:14:18.548Z,20.97
2019-01-16T05:17:25.052Z,16.67
2019-01-16T05:20:12.222Z,20.63
2019-01-16T05:23:00.298Z,22.73
2019-01-16T05:25:48.372Z,16.50
2019-01-16T05:28:35.007Z,19.53
2019-01-16T05:31:26.086Z,16.37
2019-01-16T05:34:12.945Z,17.90
2019-01-16T05:36:59.808Z,14.43
2019-01-16T05:39:45.926Z,18.13
2019-01-16T05:42:27.527Z,14.60
2019-01-16T05:45:15.573Z,16.23
2019-01-16T05:47:55.087Z,16.03
2019-01-16T05:50:40.163Z,14.00
2019-01-16T05:53:31.343Z,16.37
2019-01-16T05:56:19.714Z,13.87
2019-01-16T05:59:23.013Z,15.07
2019-01-16T06:02:10.036Z,17.77
2019-01-16T06:05:01.200Z,14.77
2019-01-16T06:08:04.547Z,12.67
2019-01-16T06:10:52.676Z,17.03
2019-01-16T06:13:39.421Z,16.63
2019-01-16T06:16:18.458Z,13.10
2019-01-16T06:18:56.640Z,12.57
2019-01-16T06:21:39.808Z,17.00
2019-01-16T06:24:38.341Z,16.63
2019-01-16T06:27:42.121Z,10.87
2019-01-16T06:30:50.928Z,14.47
2019-01-16T06:33:37.727Z,10.80
2019-01-16T06:36:24.057Z,13.20
2019-01-16T06:39:08.880Z,10.73
2019-01-16T06:42:12.231Z,12.90
2019-01-16T06:45:02.964Z,13.67
2019-01-16T06:47:48.733Z,11.70
2019-01-16T06:50:55.027Z,16.40
2019-01-16T06:53:42.028Z,10.83
2019-01-16T06:56:45.184Z,11.17
2019-01-16T06:59:42.258Z,12.63
2019-01-16T07:02:29.562Z,13.23
2019-01-16T07:05:16.522Z,8.97
2019-01-16T07:08:07.681Z,12.93
2019-01-16T07:10:54.465Z,11.70
2019-01-16T07:13:45.449Z,14.57
2019-01-16T07:16:43.028Z,11.83
2019-01-16T07:19:34.177Z,15.07
2019-01-16T07:22:31.307Z,12.87
2019-01-16T07:25:22.409Z,11.17
2019-01-16T07:28:19.026Z,10.23
2019-01-16T07:31:05.963Z,9.60
2019-01-16T07:33:44.450Z,11.27
2019-01-16T07:36:33.000Z,10.03
2019-01-16T07:39:24.283Z,8.90
2019-01-16T07:42:11.451Z,10.90
2019-01-16T07:45:10.900Z,12.37
2019-01-16T07:47:58.972Z,10.70
2019-01-16T07:50:45.930Z,8.77
2019-01-16T07:53:33.929Z,11.10
2019-01-16T07:56:21.966Z,7.40
2019-01-16T07:59:21.724Z,9.70
2019-01-16T08:01:58.191Z,7.40
2019-01-16T08:04:54.059Z,11.50
2019-01-16T08:07:42.128Z,5.50
2019-01-16T08:10:42.706Z,8.97
2019-01-16T08:13:23.169Z,6.27
2019-01-16T08:16:26.063Z,8.03
2019-01-16T08:19:12.892Z,11.33
2019-01-16T08:22:07.003Z,7.13
2019-01-16T08:24:53.681Z,9.63
2019-01-16T08:27:38.299Z,9.73
2019-01-16T08:30:25.377Z,8.57
2019-01-16T08:33:22.238Z,8.93
2019-01-16T08:36:25.429Z,7.27
2019-01-16T08:39:13.419Z,6.57
2019-01-16T08:42:00.297Z,4.53
2019-01-16T08:45:06.517Z,6.97
2019-01-16T08:47:53.014Z,4.57
2019-01-16T08:50:39.875Z,7.53
2019-01-16T08:53:30.859Z,3.33
2019-01-16T08:56:17.615Z,4.63
2019-01-16T08:59:05.806Z,3.93
2019-01-16T09:01:56.546Z,4.90
2019-01-16T09:04:37.296Z,2.87
2019-01-16T09:07:31.470Z,5.23
2019-01-16T09:10:22.324Z,7.37
2019-01-16T09:13:21.834Z,3.33
2019-01-16T09:16:22.031Z,5.13
2019-01-16T09:19:28.087Z,3.77
2019-01-16T09:22:11.056Z,4.57
2019-01-16T09:25:05.274Z,5.83
2019-01-16T09:28:08.441Z,5.30
2019-01-16T09:30:56.590Z,5.53
2019-01-16T09:33:43.326Z,4.03
2019-01-16T09:36:28.220Z,4.57
2019-01-16T09:39:28.284Z,5.20
2019-01-16T09:42:16.367Z,6.33
2019-01-16T09:45:03.259Z,8.07
2019-01-16T09:47:57.314Z,5.17
2019-01-16T09:50:33.748Z,4.97
2019-01-16T09:53:20.595Z,7.70
2019-01-16T09:56:24.058Z,4.13
2019-01-16T09:59:03.075Z,4.77
2019-01-16T10:02:06.175Z,5.97
2019-01-16T10:04:57.297Z,7.13
2019-01-16T10:07:44.201Z,7.07
2019-01-16T10:10:28.045Z,7.63
2019-01-16T10:13:04.997Z,6.83
2019-01-16T10:15:45.197Z,5.20
2019-01-16T10:18:32.210Z,7.53
2019-01-16T10:21:17.721Z,6.30
2019-01-16T10:24:08.773Z,6.47
2019-01-16T10:26:48.654Z,7.73
2019-01-16T10:29:40.633Z,7.20
2019-01-16T10:32:27.635Z,9.40
2019-01-16T10:35:14.905Z,9.20
2019-01-16T10:38:01.573Z,11.83
2019-01-16T10:41:02.411Z,8.80
2019-01-16T10:43:41.784Z,12.17
2019-01-16T10:46:28.876Z,7.57
2019-01-16T10:49:15.557Z,9.63
2019-01-16T10:52:02.404Z,8.00
2019-01-16T10:55:02.434Z,8.90
2019-01-16T10:57:52.476Z,9.10
2019-01-16T11:00:33.567Z,9.20
2019-01-16T11:03:20.348Z,10.30
2019-01-16T11:06:01.196Z,10.03
2019-01-16T11:08:48.366Z,10.73
2019-01-16T11:11:45.728Z,9.40
2019-01-16T11:14:42.768Z,9.60
2019-01-16T11:17:29.888Z,16.27
2019-01-16T11:20:11.655Z,11.20
2019-01-16T11:23:06.952Z,11.73
2019-01-16T11:25:48.208Z,10.33
2019-01-16T11:28:48.622Z,12.53
2019-01-16T11:31:43.917Z,14.37
2019-01-16T11:34:31.080Z,9.67
2019-01-16T11:37:17.825Z,12.37
2019-01-16T11:40:20.962Z,10.07
2019-01-16T11:43:15.174Z,10.90
2019-01-16T11:46:02.345Z,14.53
2019-01-16T11:48:56.094Z,13.07
2019-01-16T11:51:44.177Z,11.10
2019-01-16T11:54:31.218Z,17.93
2019-01-16T11:57:21.827Z,14.73
2019-01-16T12:00:10.127Z,16.13
2019-01-16T12:03:04.585Z,17.47
2019-01-16T12:05:52.491Z,13.80
2019-01-16T12:09:00.093Z,15.70
2019-01-16T12:11:54.268Z,11.93
2019-01-16T12:14:34.017Z,15.83
2019-01-16T12:17:56.219Z,15.10
2019-01-16T12:20:50.186Z,17.57
2019-01-16T12:23:37.178Z,18.37
2019-01-16T12:26:24.263Z,14.03
2019-01-16T12:29:10.900Z,18.37
2019-01-16T12:31:54.796Z,16.63
2019-01-16T12:34:48.768Z,15.27
2019-01-16T12:37:28.133Z,14.83
2019-01-16T12:40:14.410Z,14.63
2019-01-16T12:43:08.684Z,13.00
2019-01-16T12:46:06.062Z,18.80
2019-01-16T12:49:09.375Z,13.80
2019-01-16T12:52:07.737Z,12.93
2019-01-16T12:54:58.505Z,13.17
2019-01-16T12:57:55.302Z,17.50
2019-01-16T13:00:49.391Z,15.13
2019-01-16T13:03:36.032Z,13.47
2019-01-16T13:06:27.182Z,13.37
2019-01-16T13:09:19.833Z,15.10
2019-01-16T13:12:06.529Z,15.67
2019-01-16T13:14:44.135Z,16.50
2019-01-16T13:17:25.195Z,14.90
2019-01-16T13:20:05.671Z,14.60
2019-01-16T13:23:09.203Z,16.60
2019-01-16T13:25:55.953Z,12.47
2019-01-16T13:29:06.985Z,10.73
2019-01-16T13:31:52.550Z,12.50
2019-01-16T13:34:46.953Z,9.53
2019-01-16T13:37:32.321Z,14.90
2019-01-16T13:40:20.755Z,12.90
2019-01-16T13:43:02.757Z,10.87
2019-01-16T13:45:49.763Z,13.27
2019-01-16T13:48:36.698Z,12.17
2019-01-16T13:51:30.874Z,16.77
2019-01-16T13:54:21.261Z,10.67
2019-01-16T13:57:15.150Z,11.00
2019-01-16T14:00:03.186Z,13.03
2019-01-16T14:03:09.536Z,12.10
2019-01-16T14:06:00.493Z,7.13
2019-01-16T14:08:47.616Z,11.53
2019-01-16T14:11:47.947Z,10.17
2019-01-16T14:14:34.708Z,10.43
2019-01-16T14:17:22.750Z,9.93
2019-01-16T14:20:12.074Z,12.93
2019-01-16T14:22:59.199Z,12.53
2019-01-16T14:25:51.267Z,13.27
2019-01-16T14:28:47.030Z,11.23
2019-01-16T14:31:38.069Z,13.47
2019-01-16T14:34:27.021Z,12.73
2019-01-16T14:37:30.246Z,13.57
2019-01-16T14:40:15.117Z,11.30
2019-01-16T14:43:01.882Z,12.07
2019-01-16T14:46:02.112Z,14.60
2019-01-16T14:48:56.784Z,12.37
2019-01-16T14:51:43.685Z,9.60
2019-01-16T14:54:34.767Z,12.43
2019-01-16T14:57:35.181Z,11.93
2019-01-16T15:00:42.459Z,13.43
2019-01-16T15:03:26.508Z,10.10
2019-01-16T15:06:29.519Z,7.23
2019-01-16T15:09:19.228Z,9.40
2019-01-16T15:12:10.548Z,11.27
2019-01-16T15:14:58.671Z,10.13
2019-01-16T15:17:51.473Z,12.60
2019-01-16T15:20:38.591Z,11.93
2019-01-16T15:23:24.771Z,16.47
2019-01-16T15:26:09.918Z,10.17
2019-01-16T15:28:50.108Z,12.43
2019-01-16T15:31:41.072Z,12.20
2019-01-16T15:34:45.700Z,11.10
2019-01-16T15:37:20.846Z,11.80
2019-01-16T15:40:07.666Z,9.33
2019-01-16T15:42:47.462Z,14.80
2019-01-16T15:46:13.108Z,9.37
2019-01-16T15:49:05.384Z,12.20
2019-01-16T15:51:54.058Z,14.23
2019-01-16T15:54:48.060Z,10.83
2019-01-16T15:57:34.766Z,14.70
2019-01-16T16:00:21.682Z,10.17
2019-01-16T16:03:28.129Z,11.33
2019-01-16T16:06:25.235Z,15.77
2019-01-16T16:09:11.561Z,18.80
2019-01-16T16:12:02.263Z,14.30
2019-01-16T16:14:54.197Z,11.80
2019-01-16T16:17:40.790Z,10.53
2019-01-16T16:20:49.423Z,13.80
2019-01-16T16:23:40.455Z,13.13
2019-01-16T16:26:27.073Z,14.47
2019-01-16T16:29:07.305Z,10.30
2019-01-16T16:32:04.517Z,16.13
2019-01-16T16:34:58.651Z,11.77
2019-01-16T16:37:48.487Z,12.27
2019-01-16T16:40:36.542Z,12.83
2019-01-16T16:43:17.787Z,14.93
2019-01-16T16:46:23.959Z,10.70
2019-01-16T16:49:24.387Z,16.93
2019-01-16T16:52:25.900Z,12.73
2019-01-16T16:55:29.913Z,12.47
2019-01-16T16:58:21.009Z,10.87
2019-01-16T17:01:12.254Z,12.33
2019-01-16T17:04:11.322Z,11.80
2019-01-16T17:06:58.291Z,13.03
2019-01-16T17:09:52.970Z,15.53
2019-01-16T17:12:44.006Z,16.23
2019-01-16T17:15:32.186Z,14.53
2019-01-16T17:18:39.509Z,11.23
2019-01-16T17:21:37.556Z,18.03
2019-01-16T17:24:31.367Z,17.20
2019-01-16T17:27:19.616Z,11.30
2019-01-16T17:30:07.698Z,20.53
2019-01-16T17:32:55.803Z,14.40
2019-01-16T17:35:37.540Z,17.07
2019-01-16T17:38:43.823Z,14.77
2019-01-16T17:41:38.230Z,15.17
2019-01-16T17:44:41.633Z,14.80
2019-01-16T17:47:28.241Z,16.13
2019-01-16T17:50:31.559Z,15.47
2019-01-16T17:53:19.681Z,13.17
2019-01-16T17:56:13.857Z,13.57
2019-01-16T17:59:08.050Z,15.57
2019-01-16T18:01:47.211Z,16.57
2019-01-16T18:04:45.775Z,20.03
2019-01-16T18:07:33.977Z,13.97
2019-01-16T18:10:37.211Z,16.33
2019-01-16T18:13:24.083Z,18.20
2019-01-16T18:16:09.696Z,16.07
2019-01-16T18:18:48.882Z,12.50
2019-01-16T18:21:36.970Z,17.23
2019-01-16T18:24:22.409Z,16.97
2019-01-16T18:27:14.772Z,19.53
2019-01-16T18:29:57.612Z,14.03
2019-01-16T18:32:44.590Z,15.13
2019-01-16T18:35:35.724Z,14.10
2019-01-16T18:38:26.627Z,12.90
2019-01-16T18:41:08.204Z,16.77
2019-01-16T18:44:00.757Z,17.97
2019-01-16T18:46:48.781Z,14.93
2019-01-16T18:49:32.172Z,17.97
2019-01-16T18:52:35.387Z,21.37
2019-01-16T18:55:33.420Z,21.80
2019-01-16T18:58:21.510Z,17.53
2019-01-16T19:01:09.669Z,17.33
2019-01-16T19:03:45.356Z,17.37
2019-01-16T19:06:42.323Z,19.27
2019-01-16T19:09:33.561Z,15.40
2019-01-16T19:12:20.475Z,17.23
2019-01-16T19:15:11.411Z,16.37
2019-01-16T19:17:58.051Z,15.77
2019-01-16T19:21:01.619Z,23.67
2019-01-16T19:23:48.618Z,15.30
2019-01-16T19:26:42.715Z,17.03
2019-01-16T19:29:29.726Z,15.67
2019-01-16T19:32:26.759Z,21.53
2019-01-16T19:35:39.978Z,17.27
2019-01-16T19:38:25.181Z,17.67
2019-01-16T19:41:13.312Z,21.03
2019-01-16T19:44:04.535Z,14.77
2019-01-16T19:46:44.087Z,16.80
2019-01-16T19:49:24.967Z,19.17
2019-01-16T19:52:11.691Z,15.67
2019-01-16T19:54:58.654Z,16.47
2019-01-16T19:57:45.636Z,18.47
2019-01-16T20:00:36.390Z,20.77
2019-01-16T20:03:27.676Z,23.80
2019-01-16T20:06:22.507Z,20.30
2019-01-16T20:09:14.036Z,20.17
2019-01-16T20:12:02.048Z,22.50
2019-01-16T20:14:50.042Z,17.80
2019-01-16T20:17:41.174Z,16.60
2019-01-16T20:20:30.304Z,20.33
2019-01-16T20:23:21.406Z,20.33
2019-01-16T20:26:09.576Z,23.23
2019-01-16T20:28:56.670Z,19.17
2019-01-16T20:31:39.411Z,18.27
2019-01-16T20:34:30.686Z,24.10
2019-01-16T20:37:27.870Z,19.87
2019-01-16T20:40:25.141Z,19.73
2019-01-16T20:43:11.935Z,22.83
2019-01-16T20:46:17.869Z,22.73
2019-01-16T20:49:05.991Z,23.17
2019-01-16T20:52:00.260Z,22.63
2019-01-16T20:54:48.348Z,24.33
2019-01-16T20:57:39.665Z,21.97
2019-01-16T21:00:22.843Z,22.73
2019-01-16T21:03:20.585Z,22.20
2019-01-16T21:06:00.893Z,30.53
2019-01-16T21:08:42.819Z,26.23
2019-01-16T21:11:19.385Z,24.60
2019-01-16T21:14:22.830Z,29.77
2019-01-16T21:17:17.097Z,22.80
2019-01-16T21:20:05.157Z,26.77
2019-01-16T21:22:49.206Z,24.53
2019-01-16T21:25:30.994Z,24.13
2019-01-16T21:28:12.030Z,21.67
2019-01-16T21:30:58.811Z,23.57
2019-01-16T21:33:59.356Z,22.93
2019-01-16T21:36:50.190Z,28.03
2019-01-16T21:39:47.148Z,26.03
2019-01-16T21:42:37.971Z,30.63
2019-01-16T21:45:36.371Z,24.30
2019-01-16T21:48:19.598Z,26.97
2019-01-16T21:51:13.814Z,27.40
2019-01-16T21:53:50.603Z,27.87
2019-01-16T21:56:38.781Z,24.70
2019-01-16T21:59:39.080Z,30.07
2019-01-16T22:02:27.163Z,21.40
2019-01-16T22:05:16.962Z,27.57
2019-01-16T22:08:08.088Z,22.60
2019-01-16T22:10:59.001Z,25.27
2019-01-16T22:13:47.371Z,25.90
2019-01-16T22:16:33.516Z,24.90
2019-01-16T22:19:14.001Z,30.57
2019-01-16T22:22:07.805Z,25.30
2019-01-16T22:24:54.844Z,24.80
2019-01-16T22:27:54.839Z,24.47
2019-01-16T22:30:45.969Z,29.30
2019-01-16T22:33:34.133Z,30.67
2019-01-16T22:36:31.222Z,28.63
2019-01-16T22:39:25.319Z,31.83
2019-01-16T22:42:25.754Z,29.00
2019-01-16T22:45:12.496Z,28.77
2019-01-16T22:47:59.669Z,25.10
2019-01-16T22:50:50.483Z,31.37
2019-01-16T22:53:50.794Z,32.50
2019-01-16T22:56:37.686Z,26.87
2019-01-16T22:59:16.635Z,27.20
2019-01-16T23:02:22.975Z,33.60
2019-01-16T23:05:03.835Z,25.33
2019-01-16T23:07:54.440Z,29.10
2019-01-16T23:10:46.667Z,27.53
2019-01-16T23:13:43.881Z,27.13
2019-01-16T23:16:44.094Z,25.43
2019-01-16T23:19:35.106Z,27.53
2019-01-16T23:22:26.332Z,27.87
2019-01-16T23:25:05.924Z,30.97
2019-01-16T23:27:52.673Z,26.60
2019-01-16T23:30:47.081Z,27.70
2019-01-16T23:33:34.194Z,26.13
2019-01-16T23:36:44.236Z,24.30
2019-01-16T23:39:41.268Z,26.00
2019-01-16T23:42:38.920Z,27.27
2019-01-16T23:45:17.062Z,11.43
2019-01-16T23:48:23.463Z,9.03
2019-01-16T23:51:11.588Z,10.43
2019-01-16T23:54:15.612Z,7.43
2019-01-16T23:57:06.485Z,10.23
2019-01-16T23:59:53.967Z,8.10
